createdAt,value
2022-07-29T00:01:55.177Z,99.90
2022-07-29T00:04:22.289Z,99.90
2022-07-29T00:06:49.255Z,99.90
2022-07-29T00:09:15.937Z,99.90
2022-07-29T00:11:42.698Z,99.90
2022-07-29T00:14:09.484Z,99.90
2022-07-29T00:16:36.297Z,99.90
2022-07-29T00:19:03.086Z,99.90
2022-07-29T00:21:30.431Z,99.90
2022-07-29T00:23:57.179Z,99.90
2022-07-29T00:26:23.935Z,99.90
2022-07-29T00:28:50.622Z,99.90
2022-07-29T00:31:17.397Z,99.90
2022-07-29T00:33:44.137Z,99.90
2022-07-29T00:36:10.832Z,99.90
2022-07-29T00:38:37.528Z,99.90
2022-07-29T00:41:04.256Z,99.90
2022-07-29T00:43:31.011Z,99.90
2022-07-29T00:45:57.720Z,99.90
2022-07-29T00:48:24.458Z,99.90
2022-07-29T00:50:51.591Z,99.90
2022-07-29T00:53:18.337Z,99.90
2022-07-29T00:55:45.066Z,99.90
2022-07-29T00:58:13.031Z,99.90
2022-07-29T01:00:41.711Z,99.90
2022-07-29T01:03:08.920Z,99.90
2022-07-29T01:05:50.887Z,99.90
2022-07-29T01:08:19.317Z,99.90
2022-07-29T01:10:46.751Z,99.90
2022-07-29T01:13:14.360Z,99.90
2022-07-29T01:15:49.125Z,99.90
2022-07-29T01:18:18.276Z,99.90
2022-07-29T01:21:07.794Z,99.90
2022-07-29T01:23:46.844Z,99.90
2022-07-29T01:26:13.641Z,99.90
2022-07-29T01:29:00.911Z,99.90
2022-07-29T01:31:36.494Z,99.90
2022-07-29T01:34:06.811Z,99.90
2022-07-29T01:36:36.173Z,99.90
2022-07-29T01:39:15.074Z,99.90
2022-07-29T01:41:46.151Z,99.90
2022-07-29T01:44:16.276Z,99.90
2022-07-29T01:46:50.176Z,99.90
2022-07-29T01:49:22.457Z,99.90
2022-07-29T01:51:53.910Z,99.90
2022-07-29T01:54:23.737Z,99.90
2022-07-29T01:56:51.945Z,99.90
2022-07-29T01:59:19.544Z,99.90
2022-07-29T02:01:49.445Z,99.90
2022-07-29T02:04:29.446Z,99.90
2022-07-29T02:06:59.716Z,99.90
2022-07-29T02:09:26.915Z,99.90
2022-07-29T02:11:55.148Z,99.90
2022-07-29T02:14:23.426Z,99.90
2022-07-29T02:16:52.860Z,99.90
2022-07-29T02:19:20.699Z,99.90
2022-07-29T02:21:47.694Z,99.90
2022-07-29T02:24:15.219Z,99.90
2022-07-29T02:26:42.694Z,99.90
2022-07-29T02:29:10.396Z,99.90
2022-07-29T02:31:37.624Z,99.90
2022-07-29T02:34:06.012Z,99.90
2022-07-29T02:36:33.744Z,99.90
2022-07-29T02:39:01.789Z,99.90
2022-07-29T02:41:38.276Z,99.90
2022-07-29T02:44:07.316Z,99.90
2022-07-29T02:46:36.587Z,99.90
2022-07-29T02:49:08.092Z,99.90
2022-07-29T02:51:41.368Z,99.90
2022-07-29T02:54:11.981Z,99.90
2022-07-29T02:56:39.564Z,99.90
2022-07-29T02:59:10.133Z,99.90
2022-07-29T03:01:39.624Z,99.90
2022-07-29T03:04:07.035Z,99.90
2022-07-29T03:06:38.520Z,99.90
2022-07-29T03:09:12.874Z,99.90
2022-07-29T03:11:49.165Z,99.90
2022-07-29T03:14:18.719Z,99.90
2022-07-29T03:16:45.995Z,99.90
2022-07-29T03:19:12.885Z,99.90
2022-07-29T03:21:39.807Z,99.90
2022-07-29T03:24:10.277Z,99.90
2022-07-29T03:26:37.659Z,99.90
2022-07-29T03:29:04.365Z,99.90
2022-07-29T03:31:31.141Z,99.90
2022-07-29T03:33:58.513Z,99.90
2022-07-29T03:36:25.817Z,99.90
2022-07-29T03:38:53.095Z,99.90
2022-07-29T03:41:22.464Z,99.90
2022-07-29T03:43:50.762Z,99.90
2022-07-29T03:46:18.501Z,99.90
2022-07-29T03:48:48.184Z,99.90
2022-07-29T03:51:15.190Z,99.90
2022-07-29T03:53:41.925Z,99.90
2022-07-29T03:56:09.994Z,99.90
2022-07-29T03:58:37.454Z,99.90
2022-07-29T04:01:04.220Z,99.90
2022-07-29T04:03:30.978Z,99.90
2022-07-29T04:06:02.237Z,99.90
2022-07-29T04:08:28.992Z,99.90
2022-07-29T04:10:55.891Z,99.90
2022-07-29T04:13:22.702Z,99.90
2022-07-29T04:15:49.508Z,99.90
2022-07-29T04:18:16.229Z,99.90
2022-07-29T04:20:42.972Z,99.90
2022-07-29T04:23:09.669Z,99.90
2022-07-29T04:25:40.044Z,99.90
2022-07-29T04:28:07.203Z,99.90
2022-07-29T04:30:34.568Z,99.90
2022-07-29T04:33:06.283Z,99.90
2022-07-29T04:35:38.266Z,99.90
2022-07-29T04:38:06.412Z,99.90
2022-07-29T04:40:34.115Z,99.90
2022-07-29T04:43:01.843Z,99.90
2022-07-29T04:45:32.554Z,99.90
2022-07-29T04:47:59.259Z,99.90
2022-07-29T04:50:26.015Z,99.90
2022-07-29T04:52:52.776Z,99.90
2022-07-29T04:55:19.559Z,99.90
2022-07-29T04:57:46.276Z,99.90
2022-07-29T05:00:13.184Z,99.90
2022-07-29T05:02:40.188Z,99.90
2022-07-29T05:05:07.173Z,99.90
2022-07-29T05:07:33.888Z,99.90
2022-07-29T05:10:00.623Z,99.90
2022-07-29T05:12:27.508Z,99.90
2022-07-29T05:14:54.299Z,99.90
2022-07-29T05:17:21.094Z,99.90
2022-07-29T05:19:47.867Z,99.90
2022-07-29T05:22:14.573Z,99.90
2022-07-29T05:24:41.765Z,99.90
2022-07-29T05:27:08.491Z,99.90
2022-07-29T05:29:43.259Z,99.90
2022-07-29T05:32:12.855Z,99.90
2022-07-29T05:34:50.070Z,99.90
2022-07-29T05:37:18.747Z,99.90
2022-07-29T05:39:48.799Z,99.90
2022-07-29T05:42:17.474Z,99.90
2022-07-29T05:44:44.231Z,99.90
2022-07-29T05:47:10.911Z,99.90
2022-07-29T05:49:37.686Z,99.90
2022-07-29T05:52:04.642Z,99.90
2022-07-29T05:54:31.628Z,99.90
2022-07-29T05:56:58.340Z,99.90
2022-07-29T05:59:30.082Z,99.90
2022-07-29T06:01:58.218Z,99.90
2022-07-29T06:04:25.271Z,99.90
2022-07-29T06:06:52.082Z,99.90
2022-07-29T06:09:18.820Z,99.90
2022-07-29T06:11:45.612Z,99.90
2022-07-29T06:14:12.463Z,99.90
2022-07-29T06:16:39.339Z,99.90
2022-07-29T06:19:06.507Z,99.90
2022-07-29T06:21:34.571Z,99.90
2022-07-29T06:24:05.726Z,99.90
2022-07-29T06:26:37.759Z,99.90
2022-07-29T06:29:06.706Z,99.90
2022-07-29T06:31:33.503Z,99.90
2022-07-29T06:34:00.218Z,99.90
2022-07-29T06:36:27.366Z,99.90
2022-07-29T06:38:54.672Z,99.90
2022-07-29T06:41:24.080Z,99.90
2022-07-29T06:43:55.338Z,99.90
2022-07-29T06:46:23.960Z,99.90
2022-07-29T06:48:51.404Z,99.90
2022-07-29T06:51:22.908Z,99.90
2022-07-29T06:53:59.501Z,99.90
2022-07-29T06:56:38.953Z,99.90
2022-07-29T06:59:10.797Z,99.90
2022-07-29T07:01:38.285Z,99.90
2022-07-29T07:04:05.164Z,98.70
2022-07-29T07:06:31.904Z,98.70
2022-07-29T07:08:58.774Z,96.80
2022-07-29T07:11:25.535Z,96.60
2022-07-29T07:13:52.235Z,97.20
2022-07-29T07:16:19.237Z,95.40
2022-07-29T07:18:46.359Z,96.00
2022-07-29T07:21:18.779Z,94.70
2022-07-29T07:23:46.516Z,93.90
2022-07-29T07:26:13.280Z,93.60
2022-07-29T07:28:40.392Z,94.00
2022-07-29T07:31:07.094Z,92.60
2022-07-29T07:33:34.835Z,92.90
2022-07-29T07:36:01.527Z,93.00
2022-07-29T07:38:28.300Z,92.40
2022-07-29T07:40:55.053Z,92.60
2022-07-29T07:43:22.938Z,94.00
2022-07-29T07:45:55.788Z,89.10
2022-07-29T07:48:22.541Z,89.20
2022-07-29T07:50:50.376Z,89.80
2022-07-29T07:53:17.284Z,85.20
2022-07-29T07:56:09.271Z,87.90
2022-07-29T07:58:36.429Z,88.50
2022-07-29T08:01:03.706Z,88.50
2022-07-29T08:03:30.466Z,85.50
2022-07-29T08:05:57.237Z,85.80
2022-07-29T08:08:23.946Z,80.20
2022-07-29T08:10:53.552Z,82.40
2022-07-29T08:13:24.617Z,82.80
2022-07-29T08:16:12.299Z,82.70
2022-07-29T08:18:40.011Z,82.40
2022-07-29T08:21:07.290Z,83.00
2022-07-29T08:23:45.972Z,79.40
2022-07-29T08:26:14.346Z,85.40
2022-07-29T08:28:42.704Z,81.00
2022-07-29T08:31:09.387Z,77.70
2022-07-29T08:33:36.070Z,77.50
2022-07-29T08:36:03.311Z,74.90
2022-07-29T08:38:30.123Z,76.90
2022-07-29T08:40:56.863Z,76.20
2022-07-29T08:43:23.887Z,71.40
2022-07-29T08:45:51.512Z,75.90
2022-07-29T08:48:23.003Z,72.80
2022-07-29T08:50:53.327Z,71.40
2022-07-29T08:53:20.374Z,71.90
2022-07-29T08:55:48.428Z,69.60
2022-07-29T08:58:15.738Z,68.60
2022-07-29T09:00:44.272Z,70.30
2022-07-29T09:03:15.641Z,68.30
2022-07-29T09:05:47.742Z,69.40
2022-07-29T09:08:15.782Z,70.60
2022-07-29T09:10:42.655Z,69.60
2022-07-29T09:13:09.376Z,66.40
2022-07-29T09:15:36.056Z,68.70
2022-07-29T09:18:03.222Z,70.60
2022-07-29T09:20:48.664Z,69.80
2022-07-29T09:23:23.027Z,71.00
2022-07-29T09:25:51.233Z,69.90
2022-07-29T09:28:18.659Z,73.90
2022-07-29T09:30:52.240Z,77.50
2022-07-29T09:33:19.182Z,75.40
2022-07-29T09:35:56.613Z,73.20
2022-07-29T09:38:24.551Z,73.50
2022-07-29T09:41:05.998Z,73.40
2022-07-29T09:43:33.973Z,74.60
2022-07-29T09:46:18.996Z,73.90
2022-07-29T09:48:45.784Z,74.70
2022-07-29T09:51:28.323Z,76.80
2022-07-29T09:54:24.520Z,74.50
2022-07-29T09:56:51.259Z,75.80
2022-07-29T09:59:18.095Z,79.20
2022-07-29T10:01:44.823Z,77.70
2022-07-29T10:04:11.600Z,74.80
2022-07-29T10:07:08.994Z,75.00
2022-07-29T10:09:36.538Z,75.70
2022-07-29T10:12:04.354Z,75.40
2022-07-29T10:14:32.128Z,77.40
2022-07-29T10:17:00.134Z,73.80
2022-07-29T10:19:26.904Z,72.90
2022-07-29T10:21:57.935Z,77.00
2022-07-29T10:24:26.983Z,75.40
2022-07-29T10:26:55.430Z,78.40
2022-07-29T10:29:22.126Z,77.00
2022-07-29T10:32:07.818Z,76.80
2022-07-29T10:34:54.728Z,75.40
2022-07-29T10:37:29.746Z,77.50
2022-07-29T10:40:02.222Z,76.80
2022-07-29T10:42:34.085Z,78.70
2022-07-29T10:45:02.692Z,78.00
2022-07-29T10:47:31.500Z,75.30
2022-07-29T10:49:59.191Z,74.50
2022-07-29T10:52:46.670Z,74.40
2022-07-29T10:55:33.060Z,78.40
2022-07-29T10:58:26.327Z,79.70
2022-07-29T11:00:54.555Z,79.90
2022-07-29T11:03:40.259Z,79.50
2022-07-29T11:06:17.925Z,78.00
2022-07-29T11:08:45.351Z,78.30
2022-07-29T11:11:19.731Z,80.40
2022-07-29T11:13:51.471Z,74.10
2022-07-29T11:16:20.273Z,73.40
2022-07-29T11:19:06.774Z,75.50
2022-07-29T11:21:54.203Z,74.50
2022-07-29T11:24:32.192Z,73.90
2022-07-29T11:27:08.522Z,74.30
2022-07-29T11:29:40.081Z,72.30
2022-07-29T11:32:15.927Z,72.00
2022-07-29T11:34:49.956Z,71.60
2022-07-29T11:37:17.998Z,73.70
2022-07-29T11:40:01.504Z,71.80
2022-07-29T11:42:34.185Z,75.00
2022-07-29T11:47:55.661Z,69.90
2022-07-29T11:50:28.564Z,67.20
2022-07-29T11:52:55.643Z,69.50
2022-07-29T11:55:23.973Z,72.10
2022-07-29T11:58:03.982Z,70.60
2022-07-29T12:00:48.989Z,69.00
2022-07-29T12:06:14.972Z,68.60
2022-07-29T12:08:43.623Z,67.60
2022-07-29T12:11:17.775Z,67.10
2022-07-29T12:13:47.725Z,68.80
2022-07-29T12:16:16.490Z,67.50
2022-07-29T12:19:03.793Z,68.30
2022-07-29T12:21:49.433Z,68.10
2022-07-29T12:24:23.260Z,70.40
2022-07-29T12:26:57.802Z,72.40
2022-07-29T12:29:34.685Z,72.10
2022-07-29T12:32:03.848Z,72.00
2022-07-29T12:34:31.266Z,72.00
2022-07-29T12:36:58.126Z,74.30
2022-07-29T12:39:27.510Z,73.70
2022-07-29T12:42:04.039Z,74.20
2022-07-29T12:44:47.447Z,77.40
2022-07-29T12:47:14.386Z,78.80
2022-07-29T12:49:41.252Z,72.60
2022-07-29T12:52:37.499Z,73.80
2022-07-29T12:55:04.630Z,75.80
2022-07-29T12:57:32.633Z,73.00
2022-07-29T13:00:09.010Z,76.90
2022-07-29T13:02:35.851Z,71.50
2022-07-29T13:05:05.191Z,70.20
2022-07-29T13:07:55.699Z,66.00
2022-07-29T13:10:24.257Z,67.40
2022-07-29T13:13:04.961Z,66.50
2022-07-29T13:15:32.028Z,67.40
2022-07-29T13:17:58.991Z,69.50
2022-07-29T13:20:28.382Z,69.30
2022-07-29T13:22:55.130Z,70.20
2022-07-29T13:25:32.840Z,67.60
2022-07-29T13:28:00.507Z,68.90
2022-07-29T13:30:27.356Z,65.80
2022-07-29T13:32:54.169Z,69.90
2022-07-29T13:35:21.263Z,76.30
2022-07-29T13:37:48.598Z,78.60
2022-07-29T13:40:18.736Z,75.30
2022-07-29T13:42:45.544Z,76.90
2022-07-29T13:45:14.199Z,79.60
2022-07-29T13:47:43.607Z,76.80
2022-07-29T13:50:14.760Z,72.80
2022-07-29T13:52:41.539Z,71.20
2022-07-29T13:55:09.176Z,69.30
2022-07-29T13:57:36.491Z,70.40
2022-07-29T14:00:03.690Z,69.30
2022-07-29T14:02:30.435Z,70.10
2022-07-29T14:04:57.409Z,68.20
2022-07-29T14:07:24.208Z,67.10
2022-07-29T14:09:51.457Z,66.70
2022-07-29T14:12:18.557Z,66.60
2022-07-29T14:14:47.177Z,66.10
2022-07-29T14:17:14.509Z,70.20
2022-07-29T14:19:41.339Z,73.00
2022-07-29T14:22:09.464Z,69.40
2022-07-29T14:24:37.981Z,68.00
2022-07-29T14:27:05.340Z,66.80
2022-07-29T14:29:36.923Z,64.20
2022-07-29T14:32:06.240Z,64.90
2022-07-29T14:34:34.426Z,63.10
2022-07-29T14:37:01.127Z,62.30
2022-07-29T14:39:32.004Z,64.40
2022-07-29T14:41:59.271Z,64.80
2022-07-29T14:44:31.995Z,65.20
2022-07-29T14:47:07.663Z,64.80
2022-07-29T14:49:34.664Z,65.60
2022-07-29T14:52:01.626Z,69.10
2022-07-29T14:54:28.444Z,67.90
2022-07-29T14:56:58.033Z,69.60
2022-07-29T14:59:25.506Z,65.70
2022-07-29T15:01:52.267Z,64.80
2022-07-29T15:04:19.039Z,67.60
2022-07-29T15:06:45.856Z,67.70
2022-07-29T15:09:12.893Z,69.30
2022-07-29T15:11:39.687Z,68.10
2022-07-29T15:14:06.982Z,66.90
2022-07-29T15:16:34.139Z,67.80
2022-07-29T15:19:02.040Z,68.10
2022-07-29T15:21:28.759Z,67.40
2022-07-29T15:23:55.463Z,66.70
2022-07-29T15:26:22.403Z,67.80
2022-07-29T15:28:49.235Z,66.80
2022-07-29T15:31:16.051Z,66.60
2022-07-29T15:33:42.843Z,66.00
2022-07-29T15:36:09.690Z,66.30
2022-07-29T15:38:41.769Z,67.90
2022-07-29T15:41:08.972Z,67.50
2022-07-29T15:43:38.611Z,67.50
2022-07-29T15:46:24.124Z,71.60
2022-07-29T15:48:50.892Z,69.10
2022-07-29T15:51:17.628Z,67.70
2022-07-29T15:53:44.435Z,69.80
2022-07-29T15:56:20.430Z,67.40
2022-07-29T15:58:47.249Z,67.20
2022-07-29T16:01:14.064Z,68.70
2022-07-29T16:03:45.714Z,68.00
2022-07-29T16:06:12.989Z,67.50
2022-07-29T16:08:39.687Z,66.50
2022-07-29T16:11:06.369Z,65.10
2022-07-29T16:13:33.091Z,66.70
2022-07-29T16:16:02.569Z,65.50
2022-07-29T16:18:30.282Z,66.00
2022-07-29T16:20:57.767Z,65.70
2022-07-29T16:23:25.323Z,66.00
2022-07-29T16:26:00.816Z,65.10
2022-07-29T16:28:28.552Z,66.70
2022-07-29T16:30:55.354Z,66.00
2022-07-29T16:33:22.163Z,65.20
2022-07-29T16:35:48.991Z,66.50
2022-07-29T16:38:15.878Z,66.80
2022-07-29T16:40:42.662Z,65.60
2022-07-29T16:43:09.412Z,67.40
2022-07-29T16:45:39.481Z,68.70
2022-07-29T16:48:13.975Z,68.10
2022-07-29T16:50:41.024Z,67.30
2022-07-29T16:53:10.332Z,67.60
2022-07-29T16:55:37.218Z,68.40
2022-07-29T16:58:03.920Z,69.80
2022-07-29T17:00:30.757Z,69.40
2022-07-29T17:02:57.613Z,69.10
2022-07-29T17:05:24.406Z,70.20
2022-07-29T17:07:51.159Z,69.80
2022-07-29T17:10:18.103Z,70.00
2022-07-29T17:12:45.091Z,72.90
2022-07-29T17:15:12.422Z,70.20
2022-07-29T17:17:55.127Z,71.80
2022-07-29T17:20:23.771Z,72.70
2022-07-29T17:22:50.496Z,75.60
2022-07-29T17:25:20.551Z,76.10
2022-07-29T17:27:49.479Z,77.90
2022-07-29T17:30:16.245Z,78.30
2022-07-29T17:32:42.917Z,82.50
2022-07-29T17:35:28.242Z,81.30
2022-07-29T17:37:55.286Z,83.60
2022-07-29T17:40:22.083Z,84.90
2022-07-29T17:42:48.843Z,85.80
2022-07-29T17:45:15.541Z,85.90
2022-07-29T17:47:42.260Z,86.80
2022-07-29T17:50:09.096Z,86.60
2022-07-29T17:52:35.811Z,87.30
2022-07-29T17:55:02.682Z,89.70
2022-07-29T17:57:29.451Z,90.40
2022-07-29T17:59:56.167Z,91.10
2022-07-29T18:02:22.940Z,91.00
2022-07-29T18:04:53.251Z,90.80
2022-07-29T18:07:20.017Z,91.00
2022-07-29T18:09:46.732Z,91.20
2022-07-29T18:12:13.419Z,91.70
2022-07-29T18:14:40.183Z,91.90
2022-07-29T18:17:06.941Z,92.10
2022-07-29T18:19:33.666Z,92.00
2022-07-29T18:22:04.898Z,92.60
2022-07-29T18:24:31.821Z,92.70
2022-07-29T18:26:58.739Z,92.10
2022-07-29T18:29:25.676Z,92.70
2022-07-29T18:31:55.466Z,92.80
2022-07-29T18:34:22.193Z,93.60
2022-07-29T18:36:48.885Z,93.80
2022-07-29T18:39:20.669Z,94.50
2022-07-29T18:41:50.201Z,95.60
2022-07-29T18:44:17.698Z,95.10
2022-07-29T18:46:47.206Z,95.10
2022-07-29T18:49:14.845Z,95.00
2022-07-29T18:51:41.627Z,95.30
2022-07-29T18:54:10.065Z,95.30
2022-07-29T18:56:37.290Z,95.30
2022-07-29T18:59:04.407Z,95.30
2022-07-29T19:01:31.655Z,95.80
2022-07-29T19:03:59.011Z,96.10
2022-07-29T19:06:26.054Z,96.60
2022-07-29T19:08:52.983Z,97.10
2022-07-29T19:11:19.736Z,96.70
2022-07-29T19:13:46.437Z,96.30
2022-07-29T19:16:14.208Z,96.70
2022-07-29T19:18:41.478Z,97.80
2022-07-29T19:21:08.209Z,97.50
2022-07-29T19:24:01.807Z,98.00
2022-07-29T19:26:21.680Z,98.10
2022-07-29T19:28:48.910Z,97.90
2022-07-29T19:31:15.998Z,97.80
2022-07-29T19:33:42.860Z,97.70
2022-07-29T19:36:09.699Z,97.40
2022-07-29T19:38:38.255Z,97.50
2022-07-29T19:41:06.281Z,97.60
2022-07-29T19:43:50.353Z,97.60
2022-07-29T19:46:19.996Z,97.70
2022-07-29T19:48:46.779Z,98.60
2022-07-29T19:51:13.568Z,98.50
2022-07-29T19:53:40.348Z,98.50
2022-07-29T19:56:08.992Z,98.50
2022-07-29T19:58:36.118Z,98.90
2022-07-29T20:01:03.020Z,99.40
2022-07-29T20:03:39.692Z,99.90
2022-07-29T20:06:07.468Z,99.90
2022-07-29T20:08:34.412Z,99.90
2022-07-29T20:11:01.154Z,99.90
2022-07-29T20:13:27.896Z,99.80
2022-07-29T20:15:54.645Z,99.60
2022-07-29T20:18:21.408Z,99.40
2022-07-29T20:20:49.590Z,99.90
2022-07-29T20:23:17.108Z,99.90
2022-07-29T20:25:44.352Z,99.90
2022-07-29T20:28:11.178Z,99.90
2022-07-29T20:30:38.576Z,99.90
2022-07-29T20:33:05.791Z,99.90
2022-07-29T20:35:32.639Z,99.90
2022-07-29T20:38:00.410Z,99.90
2022-07-29T20:40:27.634Z,99.90
2022-07-29T20:42:55.050Z,99.90
2022-07-29T20:45:22.555Z,99.90
2022-07-29T20:47:50.734Z,99.90
2022-07-29T20:50:18.402Z,99.90
2022-07-29T20:52:45.179Z,99.90
2022-07-29T20:55:11.867Z,99.90
2022-07-29T20:57:39.845Z,99.90
2022-07-29T21:00:07.379Z,99.90
2022-07-29T21:02:34.291Z,99.90
2022-07-29T21:05:01.186Z,99.90
2022-07-29T21:07:28.009Z,99.90
2022-07-29T21:09:54.684Z,99.90
2022-07-29T21:12:21.503Z,99.90
2022-07-29T21:14:48.256Z,99.90
2022-07-29T21:17:15.638Z,99.90
2022-07-29T21:19:42.623Z,99.90
2022-07-29T21:22:09.523Z,99.90
2022-07-29T21:24:36.517Z,99.90
2022-07-29T21:27:22.085Z,99.90
2022-07-29T21:29:49.468Z,99.90
2022-07-29T21:32:29.793Z,99.90
2022-07-29T21:34:57.423Z,99.90
2022-07-29T21:37:24.186Z,99.90
2022-07-29T21:39:51.113Z,99.90
2022-07-29T21:42:17.912Z,99.90
2022-07-29T21:44:44.751Z,99.90
2022-07-29T21:47:11.948Z,99.90
2022-07-29T21:49:38.789Z,99.90
2022-07-29T21:52:05.662Z,99.90
2022-07-29T21:54:34.800Z,99.90
2022-07-29T21:57:01.821Z,99.90
2022-07-29T21:59:29.543Z,99.90
2022-07-29T22:01:56.547Z,99.90
2022-07-29T22:04:23.393Z,99.90
2022-07-29T22:06:50.233Z,99.90
2022-07-29T22:09:16.935Z,99.90
2022-07-29T22:11:43.736Z,99.90
2022-07-29T22:14:10.454Z,99.90
2022-07-29T22:16:37.316Z,99.90
2022-07-29T22:19:04.311Z,99.90
2022-07-29T22:21:31.153Z,99.90
2022-07-29T22:23:58.055Z,99.90
2022-07-29T22:26:24.987Z,99.90
2022-07-29T22:28:51.945Z,99.90
2022-07-29T22:31:18.788Z,99.90
2022-07-29T22:33:45.590Z,99.90
2022-07-29T22:36:12.626Z,99.90
2022-07-29T22:38:39.377Z,99.90
2022-07-29T22:41:06.144Z,99.90
2022-07-29T22:43:32.849Z,99.90
2022-07-29T22:45:59.671Z,99.90
2022-07-29T22:48:26.433Z,99.90
2022-07-29T22:50:53.126Z,99.90
2022-07-29T22:53:19.862Z,99.90
2022-07-29T22:55:46.603Z,99.90
2022-07-29T22:58:13.297Z,99.90
2022-07-29T23:00:40.034Z,99.90
2022-07-29T23:03:06.895Z,99.90
2022-07-29T23:05:33.726Z,99.90
2022-07-29T23:08:00.503Z,99.90
2022-07-29T23:10:27.293Z,99.90
2022-07-29T23:12:54.004Z,99.90
2022-07-29T23:15:20.870Z,99.90
2022-07-29T23:17:47.562Z,99.90
2022-07-29T23:20:15.008Z,99.90
2022-07-29T23:22:41.898Z,99.90
2022-07-29T23:25:08.803Z,99.90
2022-07-29T23:27:35.571Z,99.90
2022-07-29T23:30:02.744Z,99.90
2022-07-29T23:32:29.560Z,99.90
2022-07-29T23:34:56.277Z,99.90
2022-07-29T23:37:23.154Z,99.90
2022-07-29T23:39:49.877Z,99.90
2022-07-29T23:42:16.570Z,99.90
2022-07-29T23:44:43.320Z,99.90
2022-07-29T23:47:10.005Z,99.90
2022-07-29T23:49:36.686Z,99.90
2022-07-29T23:52:03.521Z,99.90
2022-07-29T23:54:30.262Z,99.90
2022-07-29T23:57:00.240Z,99.90
2022-07-29T23:59:27.211Z,99.90
